createdAt,value
2018-07-25T00:00:50.144Z,55943.18
2018-07-25T00:03:19.266Z,55968.89
2018-07-25T00:05:48.314Z,55944.21
2018-07-25T00:08:17.417Z,55931.87
2018-07-25T00:10:53.676Z,55920.56
2018-07-25T00:13:24.686Z,55945.24
2018-07-25T00:15:53.752Z,55960.66
2018-07-25T00:18:22.915Z,55929.82
2018-07-25T00:20:52.006Z,55950.38
2018-07-25T00:23:21.145Z,55952.44
2018-07-25T00:25:50.274Z,55960.66
2018-07-25T00:28:19.404Z,55952.44
2018-07-25T00:30:48.616Z,55917.48
2018-07-25T00:33:17.783Z,55910.28
2018-07-25T00:35:46.867Z,55966.83
2018-07-25T00:38:15.943Z,55909.25
2018-07-25T00:40:45.076Z,55967.86
2018-07-25T00:43:14.148Z,55995.62
2018-07-25T00:45:43.230Z,55982.25
2018-07-25T00:48:12.347Z,55963.75
2018-07-25T00:50:41.406Z,55969.92
2018-07-25T00:53:10.692Z,55928.79
2018-07-25T00:55:39.806Z,55966.83
2018-07-25T00:58:08.978Z,55970.95
2018-07-25T01:00:38.082Z,55957.58
2018-07-25T01:03:07.282Z,55932.90
2018-07-25T01:05:36.408Z,55979.17
2018-07-25T01:08:05.675Z,55964.78
2018-07-25T01:10:36.087Z,55956.55
2018-07-25T01:13:05.146Z,55964.78
2018-07-25T01:15:34.291Z,55953.46
2018-07-25T01:18:03.470Z,55959.63
2018-07-25T01:20:32.535Z,55959.63
2018-07-25T01:23:01.752Z,55966.83
2018-07-25T01:25:30.863Z,55981.23
2018-07-25T01:27:59.982Z,55988.43
2018-07-25T01:30:29.090Z,55970.95
2018-07-25T01:32:58.230Z,55941.13
2018-07-25T01:35:27.359Z,56001.79
2018-07-25T01:37:56.500Z,55988.43
2018-07-25T01:40:25.636Z,55982.25
2018-07-25T01:42:54.796Z,55981.23
2018-07-25T01:45:23.933Z,55989.45
2018-07-25T01:47:53.018Z,55975.06
2018-07-25T01:50:22.159Z,55985.34
2018-07-25T01:52:51.277Z,55973.00
2018-07-25T01:55:20.358Z,55997.68
2018-07-25T01:57:49.472Z,55939.07
2018-07-25T02:00:18.563Z,55958.61
2018-07-25T02:02:47.617Z,55946.27
2018-07-25T02:05:16.700Z,55990.48
2018-07-25T02:07:45.799Z,56006.93
2018-07-25T02:10:14.906Z,55970.95
2018-07-25T02:12:44.011Z,55987.40
2018-07-25T02:15:13.046Z,55977.11
2018-07-25T02:17:42.168Z,55983.28
2018-07-25T02:20:11.277Z,55958.61
2018-07-25T02:22:40.366Z,55957.58
2018-07-25T02:25:09.433Z,55993.57
2018-07-25T02:27:38.504Z,55981.23
2018-07-25T02:30:07.609Z,55990.48
2018-07-25T02:32:36.744Z,55978.14
2018-07-25T02:35:05.921Z,55986.37
2018-07-25T02:37:35.137Z,55968.89
2018-07-25T02:40:04.432Z,55989.45
2018-07-25T02:42:33.579Z,55974.03
2018-07-25T02:45:02.715Z,55979.17
2018-07-25T02:47:31.797Z,55985.34
2018-07-25T02:50:00.899Z,55977.11
2018-07-25T02:52:30.022Z,55958.61
2018-07-25T02:54:59.122Z,55993.57
2018-07-25T02:57:28.255Z,55985.34
2018-07-25T02:59:57.421Z,55970.95
2018-07-25T03:02:26.514Z,56003.85
2018-07-25T03:04:55.628Z,55997.68
2018-07-25T03:07:24.732Z,55965.80
2018-07-25T03:09:53.646Z,56005.90
2018-07-25T03:12:22.789Z,55994.59
2018-07-25T03:14:51.931Z,55997.68
2018-07-25T03:17:21.072Z,55996.65
2018-07-25T03:19:50.211Z,56012.07
2018-07-25T03:22:19.323Z,55989.45
2018-07-25T03:24:48.442Z,55977.11
2018-07-25T03:27:17.604Z,55999.73
2018-07-25T03:29:46.561Z,55997.68
2018-07-25T03:32:15.645Z,55989.45
2018-07-25T03:34:44.750Z,56003.85
2018-07-25T03:37:13.906Z,55995.62
2018-07-25T03:39:43.045Z,55993.57
2018-07-25T03:42:12.134Z,55958.61
2018-07-25T03:44:41.262Z,56011.05
2018-07-25T03:47:10.395Z,55962.72
2018-07-25T03:49:39.481Z,56005.90
2018-07-25T03:52:08.618Z,55993.57
2018-07-25T03:54:37.746Z,55990.48
2018-07-25T03:57:06.866Z,56000.76
2018-07-25T03:59:36.030Z,55975.06
2018-07-25T04:02:05.400Z,56005.90
2018-07-25T04:04:34.491Z,56002.82
2018-07-25T04:07:03.590Z,55955.52
2018-07-25T04:09:32.744Z,55946.27
2018-07-25T04:12:01.908Z,55971.97
2018-07-25T04:14:31.030Z,55992.54
2018-07-25T04:16:59.890Z,55985.34
2018-07-25T04:19:28.993Z,55981.23
2018-07-25T04:21:58.113Z,55993.57
2018-07-25T04:24:27.193Z,55958.61
2018-07-25T04:26:56.344Z,55981.23
2018-07-25T04:29:25.549Z,55969.92
2018-07-25T04:31:54.649Z,55952.44
2018-07-25T04:34:23.760Z,55954.49
2018-07-25T04:36:52.845Z,55967.86
2018-07-25T04:39:21.966Z,55981.23
2018-07-25T04:41:51.038Z,55973.00
2018-07-25T04:44:20.523Z,55969.92
2018-07-25T04:46:49.631Z,55993.57
2018-07-25T04:49:18.765Z,55982.25
2018-07-25T04:51:47.871Z,55981.23
2018-07-25T04:54:16.987Z,55952.44
2018-07-25T04:56:46.118Z,55951.41
2018-07-25T04:59:15.236Z,55940.10
2018-07-25T05:01:44.352Z,55968.89
2018-07-25T05:04:13.458Z,55958.61
2018-07-25T05:06:42.592Z,55979.17
2018-07-25T05:09:11.730Z,55956.55
2018-07-25T05:11:40.859Z,55948.32
2018-07-25T05:14:09.994Z,55931.87
2018-07-25T05:16:39.102Z,55924.68
2018-07-25T05:19:08.157Z,55956.55
2018-07-25T05:21:37.263Z,55913.36
2018-07-25T05:24:06.523Z,55928.79
2018-07-25T05:26:35.619Z,55929.82
2018-07-25T05:29:04.716Z,55957.58
2018-07-25T05:31:33.848Z,55928.79
2018-07-25T05:34:02.958Z,55922.62
2018-07-25T05:36:32.045Z,55914.39
2018-07-25T05:39:01.105Z,55925.70
2018-07-25T05:41:30.047Z,55923.65
2018-07-25T05:43:59.134Z,55897.94
2018-07-25T05:46:28.223Z,55915.42
2018-07-25T05:48:57.295Z,55887.66
2018-07-25T05:51:26.431Z,55900.00
2018-07-25T05:53:55.543Z,55875.32
2018-07-25T05:56:24.625Z,55897.94
2018-07-25T05:58:53.760Z,55892.80
2018-07-25T06:01:22.885Z,55838.31
2018-07-25T06:03:52.029Z,55737.55
2018-07-25T06:06:21.101Z,55661.46
2018-07-25T06:08:50.251Z,55650.16
2018-07-25T06:11:19.422Z,55636.79
2018-07-25T06:13:48.561Z,55604.92
2018-07-25T06:16:17.651Z,55611.09
2018-07-25T06:18:46.745Z,55596.69
2018-07-25T06:21:15.805Z,55604.92
2018-07-25T06:23:44.948Z,55616.23
2018-07-25T06:26:14.060Z,55598.75
2018-07-25T06:28:43.122Z,55577.16
2018-07-25T06:31:12.256Z,55580.24
2018-07-25T06:33:41.358Z,55596.69
2018-07-25T06:36:10.497Z,55605.95
2018-07-25T06:38:39.527Z,55603.89
2018-07-25T06:41:08.639Z,55609.03
2018-07-25T06:43:37.748Z,55624.45
2018-07-25T06:46:07.019Z,55708.76
2018-07-25T06:48:36.157Z,55779.70
2018-07-25T06:51:05.250Z,55819.80
2018-07-25T06:53:34.372Z,55852.70
2018-07-25T06:56:03.449Z,55855.79
2018-07-25T06:58:32.883Z,55849.62
2018-07-25T07:01:02.040Z,55860.93
2018-07-25T07:03:31.154Z,55872.24
2018-07-25T07:06:00.273Z,55874.29
2018-07-25T07:08:29.377Z,55884.57
2018-07-25T07:10:58.599Z,55892.80
2018-07-25T07:13:27.687Z,55886.63
2018-07-25T07:15:56.821Z,55919.54
2018-07-25T07:18:25.902Z,55921.59
2018-07-25T07:20:54.986Z,55866.07
2018-07-25T07:23:24.050Z,55873.27
2018-07-25T07:25:53.159Z,55896.91
2018-07-25T07:28:22.290Z,55896.91
2018-07-25T07:30:51.452Z,55905.14
2018-07-25T07:33:20.511Z,55897.94
2018-07-25T07:35:49.429Z,55908.23
2018-07-25T07:38:18.491Z,55866.07
2018-07-25T07:40:47.643Z,55893.83
2018-07-25T07:43:16.767Z,55891.77
2018-07-25T07:45:45.857Z,55898.97
2018-07-25T07:48:14.992Z,55878.41
2018-07-25T07:50:44.082Z,55874.29
2018-07-25T07:53:13.333Z,55868.12
2018-07-25T07:55:42.445Z,55877.38
2018-07-25T07:58:11.545Z,55886.63
2018-07-25T08:00:40.735Z,55874.29
2018-07-25T08:03:09.831Z,55884.57
2018-07-25T08:05:38.998Z,55868.12
2018-07-25T08:08:08.086Z,55866.07
2018-07-25T08:10:37.251Z,55890.75
2018-07-25T08:13:06.530Z,55858.87
2018-07-25T08:15:35.701Z,55876.35
2018-07-25T08:18:04.829Z,55856.81
2018-07-25T08:20:33.942Z,55875.32
2018-07-25T08:23:03.045Z,55884.57
2018-07-25T08:25:32.319Z,55872.24
2018-07-25T08:28:01.379Z,55865.04
2018-07-25T08:30:30.459Z,55876.35
2018-07-25T08:32:59.679Z,55880.46
2018-07-25T08:35:28.835Z,55843.45
2018-07-25T08:37:57.917Z,55847.56
2018-07-25T08:40:27.024Z,55845.50
2018-07-25T08:42:56.051Z,55836.25
2018-07-25T08:45:25.171Z,55852.70
2018-07-25T08:47:54.233Z,55843.45
2018-07-25T08:50:23.339Z,55817.75
2018-07-25T08:52:52.494Z,55818.77
2018-07-25T08:55:21.689Z,55841.39
2018-07-25T08:57:50.779Z,55854.76
2018-07-25T09:00:19.890Z,55806.43
2018-07-25T09:02:48.965Z,55771.48
2018-07-25T09:05:17.994Z,55715.96
2018-07-25T09:07:47.070Z,55685.11
2018-07-25T09:10:16.211Z,55679.97
2018-07-25T09:12:45.424Z,55651.18
2018-07-25T09:15:14.522Z,55628.56
2018-07-25T09:17:43.585Z,55647.07
2018-07-25T09:20:12.656Z,55638.85
2018-07-25T09:22:41.755Z,55656.32
2018-07-25T09:25:10.901Z,55635.76
2018-07-25T09:27:39.964Z,55631.65
2018-07-25T09:30:09.056Z,55676.89
2018-07-25T09:32:38.157Z,55669.69
2018-07-25T09:35:07.301Z,55723.15
2018-07-25T09:37:36.391Z,55673.80
2018-07-25T09:40:05.606Z,55679.97
2018-07-25T09:42:34.719Z,55645.02
2018-07-25T09:45:03.842Z,55636.79
2018-07-25T09:47:32.967Z,55678.94
2018-07-25T09:50:01.892Z,55673.80
2018-07-25T09:52:31.043Z,55685.11
2018-07-25T09:55:00.161Z,55685.11
2018-07-25T09:57:29.301Z,55760.17
2018-07-25T10:00:03.751Z,55831.11
2018-07-25T10:02:33.206Z,55812.60
2018-07-25T10:05:02.755Z,55839.34
2018-07-25T10:07:32.455Z,55803.35
2018-07-25T10:10:02.018Z,55795.12
2018-07-25T10:12:31.590Z,55794.10
2018-07-25T10:15:00.969Z,55723.15
2018-07-25T10:17:30.243Z,55721.10
2018-07-25T10:19:59.494Z,55705.68
2018-07-25T10:22:29.224Z,55713.90
2018-07-25T10:24:58.506Z,55684.08
2018-07-25T10:27:27.854Z,55690.25
2018-07-25T10:29:58.048Z,55699.51
2018-07-25T10:32:27.285Z,55718.01
2018-07-25T10:34:56.626Z,55763.25
2018-07-25T10:37:25.844Z,55785.87
2018-07-25T10:39:55.439Z,55808.49
2018-07-25T10:42:24.798Z,55854.76
2018-07-25T10:44:54.068Z,55827.00
2018-07-25T10:47:23.354Z,55829.05
2018-07-25T10:49:52.618Z,55800.27
2018-07-25T10:52:22.285Z,55801.29
2018-07-25T10:54:52.685Z,55813.63
2018-07-25T10:57:22.357Z,55827.00
2018-07-25T10:59:51.635Z,55806.43
2018-07-25T11:02:20.881Z,55842.42
2018-07-25T11:04:50.144Z,55844.48
2018-07-25T11:07:19.475Z,55815.69
2018-07-25T11:09:48.838Z,55808.49
2018-07-25T11:12:18.495Z,55811.57
2018-07-25T11:14:48.197Z,55829.05
2018-07-25T11:17:17.510Z,55831.11
2018-07-25T11:19:46.771Z,55837.28
2018-07-25T11:22:16.264Z,55805.41
2018-07-25T11:24:45.503Z,55827.00
2018-07-25T11:27:15.156Z,55816.71
2018-07-25T11:29:44.366Z,55814.66
2018-07-25T11:32:13.686Z,55823.91
2018-07-25T11:34:43.284Z,55809.52
2018-07-25T11:37:12.721Z,55832.14
2018-07-25T11:39:42.021Z,55796.15
2018-07-25T11:42:11.639Z,55780.73
2018-07-25T11:44:41.920Z,55817.75
2018-07-25T11:47:11.154Z,55808.49
2018-07-25T11:49:40.819Z,55870.18
2018-07-25T11:52:10.091Z,55844.48
2018-07-25T11:54:39.392Z,55831.11
2018-07-25T11:57:08.995Z,55817.75
2018-07-25T11:59:38.589Z,55805.41
2018-07-25T12:02:07.866Z,55798.21
2018-07-25T12:04:37.132Z,55799.24
2018-07-25T12:07:06.967Z,55787.93
2018-07-25T12:09:36.542Z,55771.48
2018-07-25T12:12:05.818Z,55815.69
2018-07-25T12:14:35.389Z,55809.52
2018-07-25T12:17:04.623Z,55820.83
2018-07-25T12:19:33.903Z,55825.97
2018-07-25T12:22:03.432Z,55814.66
2018-07-25T12:24:32.750Z,55788.95
2018-07-25T12:27:02.003Z,55796.15
2018-07-25T12:29:31.304Z,55812.60
2018-07-25T12:32:00.609Z,55816.71
2018-07-25T12:34:29.868Z,55800.27
2018-07-25T12:36:59.177Z,55791.01
2018-07-25T12:39:28.406Z,55745.77
2018-07-25T12:41:57.999Z,55788.95
2018-07-25T12:44:27.463Z,55767.36
2018-07-25T12:46:56.711Z,55773.53
2018-07-25T12:49:26.259Z,55759.14
2018-07-25T12:51:55.511Z,55818.77
2018-07-25T12:54:24.967Z,55825.97
2018-07-25T12:56:54.216Z,55823.91
2018-07-25T12:59:27.642Z,55800.27
2018-07-25T13:01:57.001Z,55789.98
2018-07-25T13:04:28.627Z,55792.04
2018-07-25T13:06:57.870Z,55765.31
2018-07-25T13:09:27.378Z,55777.64
2018-07-25T13:11:57.282Z,55763.25
2018-07-25T13:14:26.609Z,55766.34
2018-07-25T13:16:56.199Z,55773.53
2018-07-25T13:19:25.505Z,55761.20
2018-07-25T13:21:55.244Z,55778.67
2018-07-25T13:24:24.544Z,55786.90
2018-07-25T13:26:53.876Z,55768.39
2018-07-25T13:29:23.181Z,55740.63
2018-07-25T13:34:49.776Z,55748.86
2018-07-25T13:37:19.301Z,55750.91
2018-07-25T13:39:48.669Z,55737.55
2018-07-25T13:42:18.276Z,55766.34
2018-07-25T13:44:47.587Z,55731.38
2018-07-25T13:47:16.912Z,55768.39
2018-07-25T13:49:46.229Z,55748.86
2018-07-25T13:52:15.718Z,55728.29
2018-07-25T13:54:45.336Z,55730.35
2018-07-25T13:57:14.649Z,55740.63
2018-07-25T13:59:43.902Z,55746.80
2018-07-25T14:02:13.174Z,55744.74
2018-07-25T14:04:42.460Z,55760.17
2018-07-25T14:07:11.820Z,55758.11
2018-07-25T14:09:41.340Z,55720.07
2018-07-25T14:12:10.673Z,55715.96
2018-07-25T14:14:39.843Z,55742.69
2018-07-25T14:17:09.164Z,55729.32
2018-07-25T14:19:38.403Z,55728.29
2018-07-25T14:22:07.737Z,55742.69
2018-07-25T14:24:37.041Z,55743.71
2018-07-25T14:27:06.431Z,55737.55
2018-07-25T14:29:35.704Z,55736.52
2018-07-25T14:32:04.999Z,55744.74
2018-07-25T14:34:34.336Z,55766.34
2018-07-25T14:37:03.721Z,55751.94
2018-07-25T14:39:33.337Z,55767.36
2018-07-25T14:42:02.610Z,55763.25
2018-07-25T14:44:31.984Z,55773.53
2018-07-25T14:49:58.776Z,55783.81
2018-07-25T14:52:28.127Z,55794.10
2018-07-25T14:54:57.339Z,55763.25
2018-07-25T14:57:27.040Z,55763.25
2018-07-25T14:59:56.799Z,55785.87
2018-07-25T15:02:26.578Z,55758.11
2018-07-25T15:04:55.814Z,55767.36
2018-07-25T15:07:26.041Z,55770.45
2018-07-25T15:09:55.326Z,55784.84
2018-07-25T15:12:29.918Z,55785.87
2018-07-25T15:14:59.180Z,55760.17
2018-07-25T15:17:29.335Z,55781.76
2018-07-25T15:19:58.602Z,55772.50
2018-07-25T15:22:28.147Z,55782.79
2018-07-25T15:24:57.814Z,55771.48
2018-07-25T15:27:27.073Z,55775.59
2018-07-25T15:29:56.348Z,55791.01
2018-07-25T15:32:25.616Z,55781.76
2018-07-25T15:34:54.907Z,55788.95
2018-07-25T15:37:24.212Z,55765.31
2018-07-25T15:39:53.491Z,55782.79
2018-07-25T15:42:23.200Z,55785.87
2018-07-25T15:44:52.496Z,55804.38
2018-07-25T15:47:22.294Z,55787.93
2018-07-25T15:49:51.582Z,55799.24
2018-07-25T15:52:20.872Z,55763.25
2018-07-25T15:54:50.214Z,55781.76
2018-07-25T15:57:19.511Z,55779.70
2018-07-25T15:59:49.425Z,55767.36
2018-07-25T16:02:18.735Z,55805.41
2018-07-25T16:04:48.123Z,55798.21
2018-07-25T16:07:17.588Z,55786.90
2018-07-25T16:09:47.216Z,55807.46
2018-07-25T16:12:16.458Z,55793.07
2018-07-25T16:14:46.050Z,55805.41
2018-07-25T16:17:15.542Z,55781.76
2018-07-25T16:19:45.447Z,55798.21
2018-07-25T16:22:14.801Z,55786.90
2018-07-25T16:24:44.120Z,55784.84
2018-07-25T16:27:13.383Z,55771.48
2018-07-25T16:29:42.708Z,55795.12
2018-07-25T16:32:11.935Z,55803.35
2018-07-25T16:34:41.212Z,55806.43
2018-07-25T16:37:10.531Z,55817.75
2018-07-25T16:39:39.807Z,55818.77
2018-07-25T16:42:09.067Z,55802.32
2018-07-25T16:44:38.322Z,55823.91
2018-07-25T16:47:07.615Z,55817.75
2018-07-25T16:49:36.946Z,55784.84
2018-07-25T16:52:06.521Z,55794.10
2018-07-25T16:54:35.868Z,55808.49
2018-07-25T16:57:05.340Z,55784.84
2018-07-25T16:59:35.244Z,55832.14
2018-07-25T17:02:04.909Z,55833.17
2018-07-25T17:04:34.212Z,55799.24
2018-07-25T17:07:03.503Z,55814.66
2018-07-25T17:09:33.256Z,55800.27
2018-07-25T17:12:02.578Z,55816.71
2018-07-25T17:14:32.301Z,55804.38
2018-07-25T17:17:01.544Z,55846.53
2018-07-25T17:19:31.424Z,55834.20
2018-07-25T17:22:00.733Z,55819.80
2018-07-25T17:24:30.299Z,55818.77
2018-07-25T17:27:00.123Z,55831.11
2018-07-25T17:29:29.732Z,55814.66
2018-07-25T17:31:59.324Z,55844.48
2018-07-25T17:34:28.651Z,55833.17
2018-07-25T17:36:57.890Z,55827.00
2018-07-25T17:39:27.430Z,55839.34
2018-07-25T17:41:56.729Z,55827.00
2018-07-25T17:44:26.885Z,55828.02
2018-07-25T17:46:56.197Z,55838.31
2018-07-25T17:49:25.474Z,55812.60
2018-07-25T17:51:54.781Z,55827.00
2018-07-25T17:54:24.059Z,55839.34
2018-07-25T17:56:53.343Z,55815.69
2018-07-25T17:59:22.589Z,55812.60
2018-07-25T18:01:51.834Z,55824.94
2018-07-25T18:04:21.184Z,55824.94
2018-07-25T18:06:50.887Z,55836.25
2018-07-25T18:09:20.142Z,55812.60
2018-07-25T18:11:49.484Z,55849.62
2018-07-25T18:14:18.756Z,55841.39
2018-07-25T18:16:48.055Z,55854.76
2018-07-25T18:19:17.479Z,55823.91
2018-07-25T18:21:47.018Z,55833.17
2018-07-25T18:24:16.513Z,55847.56
2018-07-25T18:26:46.079Z,55828.02
2018-07-25T18:29:15.396Z,55828.02
2018-07-25T18:31:44.433Z,55835.22
2018-07-25T18:34:14.126Z,55842.42
2018-07-25T18:36:43.618Z,55843.45
2018-07-25T18:39:13.267Z,55843.45
2018-07-25T18:41:42.617Z,55859.90
2018-07-25T18:44:11.872Z,55849.62
2018-07-25T18:46:44.167Z,55846.53
2018-07-25T18:49:13.950Z,55829.05
2018-07-25T18:51:43.378Z,55841.39
2018-07-25T18:54:12.794Z,55840.36
2018-07-25T18:56:42.507Z,55822.88
2018-07-25T18:59:11.907Z,55866.07
2018-07-25T19:01:41.182Z,55854.76
2018-07-25T19:04:10.463Z,55853.73
2018-07-25T19:06:39.731Z,55841.39
2018-07-25T19:09:13.868Z,55839.34
2018-07-25T19:11:43.399Z,55874.29
2018-07-25T19:14:17.879Z,55868.12
2018-07-25T19:16:47.111Z,55840.36
2018-07-25T19:19:16.698Z,55894.86
2018-07-25T19:21:45.909Z,55864.01
2018-07-25T19:24:15.565Z,55874.29
2018-07-25T19:26:44.835Z,55842.42
2018-07-25T19:29:14.172Z,55854.76
2018-07-25T19:31:43.457Z,55840.36
2018-07-25T19:34:13.159Z,55870.18
2018-07-25T19:36:42.453Z,55855.79
2018-07-25T19:39:12.015Z,55857.84
2018-07-25T19:41:42.012Z,55875.32
2018-07-25T19:44:11.269Z,55854.76
2018-07-25T19:46:40.922Z,55868.12
2018-07-25T19:49:10.186Z,55861.95
2018-07-25T19:51:39.435Z,55884.57
2018-07-25T19:54:08.701Z,55865.04
2018-07-25T19:56:38.426Z,55881.49
2018-07-25T19:59:08.014Z,55882.52
2018-07-25T20:01:37.301Z,55895.89
2018-07-25T20:04:06.856Z,55866.07
2018-07-25T20:06:36.131Z,55865.04
2018-07-25T20:09:08.266Z,55877.38
2018-07-25T20:11:37.856Z,55877.38
2018-07-25T20:14:12.548Z,55874.29
2018-07-25T20:16:42.107Z,55857.84
2018-07-25T20:19:11.298Z,55868.12
2018-07-25T20:21:40.530Z,55852.70
2018-07-25T20:24:09.800Z,55864.01
2018-07-25T20:26:39.088Z,55885.61
2018-07-25T20:29:08.426Z,55892.80
2018-07-25T20:31:38.071Z,55853.73
2018-07-25T20:34:07.650Z,55886.63
2018-07-25T20:36:36.924Z,55876.35
2018-07-25T20:39:09.790Z,55846.53
2018-07-25T20:41:39.103Z,55876.35
2018-07-25T20:44:08.989Z,55845.50
2018-07-25T20:46:38.340Z,55877.38
2018-07-25T20:49:08.034Z,55880.46
2018-07-25T20:51:37.538Z,55854.76
2018-07-25T20:54:06.845Z,55865.04
2018-07-25T20:56:36.153Z,55864.01
2018-07-25T20:59:05.435Z,55884.57
2018-07-25T21:01:34.716Z,55910.28
2018-07-25T21:04:04.288Z,55884.57
2018-07-25T21:06:33.905Z,55901.03
2018-07-25T21:09:03.900Z,55898.97
2018-07-25T21:11:33.189Z,55876.35
2018-07-25T21:14:02.474Z,55896.91
2018-07-25T21:16:31.719Z,55877.38
2018-07-25T21:19:01.002Z,55862.98
2018-07-25T21:21:30.673Z,55890.75
2018-07-25T21:23:59.935Z,55913.36
2018-07-25T21:26:29.487Z,55884.57
2018-07-25T21:28:58.956Z,55880.46
2018-07-25T21:31:28.268Z,55898.97
2018-07-25T21:33:57.589Z,55882.52
2018-07-25T21:36:27.044Z,55906.17
2018-07-25T21:38:56.408Z,55896.91
2018-07-25T21:41:25.621Z,55854.76
2018-07-25T21:43:54.907Z,55868.12
2018-07-25T21:46:24.150Z,55879.43
2018-07-25T21:48:53.342Z,55885.61
2018-07-25T21:51:22.610Z,55880.46
2018-07-25T21:53:51.888Z,55880.46
2018-07-25T21:56:21.517Z,55885.61
2018-07-25T21:58:50.756Z,55867.10
2018-07-25T22:01:20.016Z,55876.35
2018-07-25T22:03:49.409Z,55870.18
2018-07-25T22:06:18.824Z,55885.61
2018-07-25T22:08:48.158Z,55845.50
2018-07-25T22:11:17.355Z,55902.05
2018-07-25T22:13:51.907Z,55889.72
2018-07-25T22:16:21.143Z,55897.94
2018-07-25T22:18:50.642Z,55885.61
2018-07-25T22:21:19.931Z,55898.97
2018-07-25T22:23:49.194Z,55859.90
2018-07-25T22:26:18.787Z,55877.38
2018-07-25T22:28:48.244Z,55896.91
2018-07-25T22:31:17.794Z,55884.57
2018-07-25T22:33:47.406Z,55878.41
2018-07-25T22:36:16.959Z,55880.46
2018-07-25T22:38:46.187Z,55872.24
2018-07-25T22:41:15.818Z,55913.36
2018-07-25T22:43:45.332Z,55901.03
2018-07-25T22:46:14.646Z,55913.36
2018-07-25T22:48:43.911Z,55880.46
2018-07-25T22:51:13.537Z,55888.69
2018-07-25T22:53:42.805Z,55889.72
2018-07-25T22:56:12.149Z,55909.25
2018-07-25T22:58:41.759Z,55921.59
2018-07-25T23:01:11.013Z,55915.42
2018-07-25T23:03:40.596Z,55907.20
2018-07-25T23:06:09.888Z,55908.23
2018-07-25T23:08:39.179Z,55884.57
2018-07-25T23:11:08.883Z,55914.39
2018-07-25T23:13:38.156Z,55897.94
2018-07-25T23:16:07.639Z,55874.29
2018-07-25T23:18:37.186Z,55873.27
2018-07-25T23:21:06.490Z,55907.20
2018-07-25T23:23:35.747Z,55904.11
2018-07-25T23:26:05.534Z,55903.08
2018-07-25T23:28:34.813Z,55920.56
2018-07-25T23:31:04.113Z,55915.42
2018-07-25T23:33:33.369Z,55897.94
2018-07-25T23:36:02.999Z,55891.77
2018-07-25T23:38:32.695Z,55886.63
2018-07-25T23:41:02.356Z,55907.20
2018-07-25T23:43:31.613Z,55920.56
2018-07-25T23:46:01.332Z,55918.50
2018-07-25T23:48:30.572Z,55893.83
2018-07-25T23:51:00.226Z,55908.23
2018-07-25T23:53:29.510Z,55907.20
2018-07-25T23:55:58.807Z,55910.28
2018-07-25T23:58:28.316Z,55937.01
